Time;durP1;ratioP1;P1;durP2;ratioP2;P2;SDS_P1;SDS_P2;PMS_P1;PMS_P2;Temp;Humidity;BMP_temperature;BMP_pressure;BME280_temperature;BME280_humidity;BME280_pressure;Samples;Min_cycle;Max_cycle;Signal;HPM_P1;HPM_P2
2022/10/05 00:01:18;;;;;;;11.43;5.38;;;6.30;99.90;;;;;;5018228;28;20086;-80
2022/10/05 00:03:44;;;;;;;8.75;4.72;;;6.20;99.90;;;;;;4999933;28;20351;-80
2022/10/05 00:06:11;;;;;;;11.30;5.13;;;6.20;99.90;;;;;;5000117;28;20032;-80
2022/10/05 00:08:37;;;;;;;11.15;5.28;;;6.20;99.90;;;;;;4999852;28;20030;-79
2022/10/05 00:11:07;;;;;;;15.63;5.93;;;6.10;99.90;;;;;;4999596;28;20425;-79
2022/10/05 00:13:33;;;;;;;15.38;5.45;;;6.10;99.90;;;;;;5017666;28;20553;-79
2022/10/05 00:16:03;;;;;;;14.20;4.90;;;6.10;99.90;;;;;;4999981;28;20065;-79
2022/10/05 00:18:29;;;;;;;13.65;4.82;;;6.10;99.90;;;;;;5000350;28;20067;-79
2022/10/05 00:20:55;;;;;;;10.27;4.95;;;6.10;99.90;;;;;;4999587;28;20030;-79
2022/10/05 00:23:26;;;;;;;9.85;5.25;;;6.10;99.90;;;;;;5016809;28;20049;-79
2022/10/05 00:25:52;;;;;;;10.70;4.75;;;6.10;99.90;;;;;;5016529;28;20504;-79
2022/10/05 00:28:27;;;;;;;11.60;5.95;;;6.00;99.90;;;;;;4999454;28;20026;-79
2022/10/05 00:30:57;;;;;;;11.32;5.38;;;6.00;99.90;;;;;;4999615;28;20524;-79
2022/10/05 00:33:24;;;;;;;9.75;4.57;;;6.00;99.90;;;;;;4999144;28;20030;-79
2022/10/05 00:35:50;;;;;;;10.93;4.65;;;6.00;99.90;;;;;;4998567;28;20026;-79
2022/10/05 00:38:16;;;;;;;11.60;4.75;;;5.90;99.90;;;;;;5015175;28;20032;-79
2022/10/05 00:40:47;;;;;;;8.57;4.65;;;5.90;99.90;;;;;;4998349;28;20030;-80
2022/10/05 00:43:29;;;;;;;7.90;4.70;;;5.90;99.90;;;;;;4997980;28;20057;-79
2022/10/05 00:46:06;;;;;;;7.32;4.57;;;5.90;99.90;;;;;;5015535;28;20058;-79
2022/10/05 00:48:41;;;;;;;8.48;3.92;;;5.80;99.90;;;;;;5015382;28;20443;-79
2022/10/05 00:51:14;;;;;;;10.68;4.72;;;5.90;99.90;;;;;;5015941;28;20030;-79
2022/10/05 00:53:50;;;;;;;19.27;5.72;;;5.80;99.90;;;;;;5015244;28;20030;-80
2022/10/05 00:56:34;;;;;;;8.52;4.82;;;5.80;99.90;;;;;;5015514;28;20033;-79
2022/10/05 00:59:03;;;;;;;12.90;4.93;;;5.80;99.90;;;;;;4998372;28;20034;-79
2022/10/05 01:01:38;;;;;;;10.32;4.75;;;5.80;99.90;;;;;;4998629;28;20022;-79
2022/10/05 01:04:19;;;;;;;9.63;4.40;;;5.80;99.90;;;;;;4998216;28;20120;-79
2022/10/05 01:07:03;;;;;;;5.97;3.78;;;5.80;99.90;;;;;;5015121;28;20038;-79
2022/10/05 01:09:39;;;;;;;10.90;4.50;;;5.80;99.90;;;;;;5014036;28;20068;-80
2022/10/05 01:12:04;;;;;;;8.30;4.28;;;5.70;99.90;;;;;;4997082;28;20466;-79
2022/10/05 01:15:09;;;;;;;6.55;4.40;;;5.70;99.90;;;;;;4997684;28;20117;-79
2022/10/05 01:18:07;;;;;;;6.68;4.28;;;5.70;99.90;;;;;;5014449;28;20053;-79
2022/10/05 01:21:02;;;;;;;7.55;4.25;;;5.70;99.90;;;;;;4982175;28;20060;-79
2022/10/05 01:23:46;;;;;;;6.93;4.20;;;5.70;99.90;;;;;;4996941;28;20164;-79
2022/10/05 01:26:42;;;;;;;7.82;4.07;;;5.70;99.90;;;;;;5015281;28;20482;-79
2022/10/05 01:29:15;;;;;;;7.28;4.30;;;5.60;99.90;;;;;;5015281;28;20037;-79
2022/10/05 01:32:07;;;;;;;11.73;5.15;;;5.60;99.90;;;;;;4998336;28;20062;-79
2022/10/05 01:35:08;;;;;;;5.90;4.00;;;5.60;99.90;;;;;;4996943;28;20038;-79
2022/10/05 01:37:54;;;;;;;7.90;4.13;;;5.70;99.90;;;;;;4997197;28;20386;-79
2022/10/05 01:40:28;;;;;;;6.57;4.53;;;5.60;99.90;;;;;;5015236;28;20362;-79
2022/10/05 01:43:08;;;;;;;6.18;4.15;;;5.70;99.90;;;;;;5015114;28;20030;-79
2022/10/05 01:46:11;;;;;;;5.65;4.00;;;5.60;99.90;;;;;;4997750;28;20062;-79
2022/10/05 01:48:59;;;;;;;7.78;4.43;;;5.60;99.90;;;;;;4996498;28;20057;-79
2022/10/05 01:51:47;;;;;;;9.43;4.03;;;5.50;99.90;;;;;;5014017;28;20080;-79
2022/10/05 01:54:31;;;;;;;10.48;4.85;;;5.50;99.90;;;;;;4996529;28;20026;-79
2022/10/05 01:56:59;;;;;;;12.98;3.65;;;5.50;99.90;;;;;;4995998;28;20498;-79
2022/10/05 01:59:25;;;;;;;10.65;4.82;;;5.40;99.90;;;;;;4996298;28;20032;-79
2022/10/05 02:02:00;;;;;;;10.52;4.13;;;5.40;99.90;;;;;;4996348;28;20026;-80
2022/10/05 02:04:34;;;;;;;11.30;4.28;;;5.40;99.90;;;;;;5013877;28;20026;-79
2022/10/05 02:07:05;;;;;;;7.97;4.03;;;5.40;99.90;;;;;;4996745;28;20076;-79
2022/10/05 02:09:47;;;;;;;6.60;4.10;;;5.30;99.90;;;;;;4996587;28;20025;-79
2022/10/05 02:12:19;;;;;;;7.45;3.70;;;5.30;99.90;;;;;;5013804;28;20049;-79
2022/10/05 02:14:50;;;;;;;7.82;4.10;;;5.30;99.90;;;;;;5013634;28;20037;-80
2022/10/05 02:17:25;;;;;;;9.02;3.90;;;5.30;99.90;;;;;;4995809;28;20058;-79
2022/10/05 02:19:58;;;;;;;6.32;3.85;;;5.30;99.90;;;;;;5013702;28;20022;-79
2022/10/05 02:22:38;;;;;;;12.80;4.40;;;5.40;99.90;;;;;;4998595;28;20462;-79
2022/10/05 02:25:11;;;;;;;7.75;3.78;;;5.30;99.90;;;;;;5000179;28;20092;-79
2022/10/05 02:27:44;;;;;;;7.43;4.25;;;5.30;99.90;;;;;;5017210;28;20022;-78
2022/10/05 02:30:10;;;;;;;11.45;4.63;;;5.30;99.90;;;;;;5017085;28;20021;-79
2022/10/05 02:32:48;;;;;;;7.63;3.85;;;5.30;99.90;;;;;;5017022;28;20033;-79
2022/10/05 02:35:18;;;;;;;13.45;4.05;;;5.30;99.90;;;;;;5017029;28;20111;-79
2022/10/05 02:37:54;;;;;;;10.52;3.92;;;5.40;99.90;;;;;;4999339;28;20037;-79
2022/10/05 02:40:36;;;;;;;7.88;3.83;;;5.30;99.90;;;;;;5016778;28;20485;-78
2022/10/05 02:43:26;;;;;;;10.93;4.43;;;5.30;99.90;;;;;;5016657;28;20076;-79
2022/10/05 02:46:03;;;;;;;8.60;4.28;;;5.30;99.90;;;;;;4999620;28;20492;-79
2022/10/05 02:49:00;;;;;;;14.32;3.70;;;5.30;99.90;;;;;;4999589;28;20351;-79
2022/10/05 02:51:49;;;;;;;6.53;3.45;;;5.30;99.90;;;;;;4999088;28;20473;-79
2022/10/05 02:54:41;;;;;;;10.73;4.32;;;5.30;99.90;;;;;;4999285;28;20382;-79
2022/10/05 02:57:10;;;;;;;8.13;3.30;;;5.30;99.90;;;;;;4999299;28;20096;-79
2022/10/05 02:59:52;;;;;;;5.88;3.53;;;5.20;99.90;;;;;;5016815;28;20026;-79
2022/10/05 03:02:22;;;;;;;9.65;3.97;;;5.20;99.90;;;;;;5016299;28;20029;-79
2022/10/05 03:05:06;;;;;;;5.78;2.92;;;5.20;99.90;;;;;;5016518;28;20462;-79
2022/10/05 03:07:39;;;;;;;9.30;3.95;;;5.20;99.90;;;;;;4998719;28;20050;-79
2022/10/05 03:10:14;;;;;;;10.10;3.83;;;5.20;99.90;;;;;;5016349;28;20025;-79
2022/10/05 03:13:01;;;;;;;7.00;3.47;;;5.20;99.90;;;;;;5016653;28;20034;-79
2022/10/05 03:16:21;;;;;;;9.70;4.20;;;5.20;99.90;;;;;;5016177;28;20033;-78
2022/10/05 03:18:52;;;;;;;12.02;4.10;;;5.20;99.90;;;;;;4920455;29;20048;-79
2022/10/05 03:21:23;;;;;;;5.68;3.50;;;5.10;99.90;;;;;;4985518;28;20039;-79
2022/10/05 03:24:30;;;;;;;7.47;3.67;;;5.10;99.90;;;;;;4996277;28;20033;-79
2022/10/05 03:27:28;;;;;;;7.53;3.88;;;5.10;99.90;;;;;;4978959;28;20027;-79
2022/10/05 03:30:07;;;;;;;8.10;4.47;;;5.10;99.90;;;;;;4949341;28;20034;-79
2022/10/05 03:33:00;;;;;;;4.47;3.08;;;5.00;99.90;;;;;;4978748;28;20285;-79
2022/10/05 03:35:41;;;;;;;7.32;3.33;;;5.00;99.90;;;;;;4978780;28;20038;-79
2022/10/05 03:38:19;;;;;;;13.95;3.70;;;5.10;99.90;;;;;;4996283;28;20038;-78
2022/10/05 03:40:53;;;;;;;6.55;3.30;;;5.10;99.90;;;;;;4996261;28;20026;-79
2022/10/05 03:43:33;;;;;;;6.20;3.45;;;5.10;99.90;;;;;;4979124;28;20054;-79
2022/10/05 03:46:13;;;;;;;5.43;3.45;;;5.10;99.90;;;;;;4978361;28;20038;-79
2022/10/05 03:49:08;;;;;;;12.45;4.22;;;5.10;99.90;;;;;;4979121;28;20386;-79
2022/10/05 03:51:41;;;;;;;7.68;3.72;;;5.10;99.90;;;;;;4988435;28;20038;-79
2022/10/05 03:54:23;;;;;;;7.10;3.95;;;5.10;99.90;;;;;;4979065;28;20026;-79
2022/10/05 03:56:54;;;;;;;6.20;4.13;;;5.10;99.90;;;;;;4995913;28;20034;-79
2022/10/05 03:59:25;;;;;;;10.40;3.83;;;5.10;99.90;;;;;;4995938;28;20058;-79
2022/10/05 04:01:53;;;;;;;5.95;3.45;;;5.10;99.90;;;;;;4995690;28;20526;-79
2022/10/05 04:04:35;;;;;;;7.20;3.25;;;5.10;99.90;;;;;;4978198;28;20031;-80
2022/10/05 04:07:01;;;;;;;9.15;3.33;;;5.10;99.90;;;;;;4997051;28;20451;-77
2022/10/05 04:09:35;;;;;;;6.90;3.05;;;5.10;99.90;;;;;;4995776;28;20027;-78
2022/10/05 04:12:22;;;;;;;5.90;3.45;;;5.10;99.90;;;;;;4995983;28;20065;-76
2022/10/05 04:15:12;;;;;;;5.22;2.95;;;5.00;99.90;;;;;;4978159;28;20058;-79
2022/10/05 04:17:50;;;;;;;4.18;3.15;;;4.90;99.90;;;;;;4991264;28;20056;-76
2022/10/05 04:20:25;;;;;;;6.13;4.25;;;5.00;99.90;;;;;;4997462;28;20034;-77
2022/10/05 04:23:09;;;;;;;7.38;4.20;;;4.90;99.90;;;;;;4997483;28;20030;-77
2022/10/05 04:25:42;;;;;;;6.55;3.95;;;5.00;99.90;;;;;;4997477;28;20033;-79
2022/10/05 04:28:35;;;;;;;5.32;3.28;;;5.00;99.90;;;;;;4997406;28;20042;-79
2022/10/05 04:31:04;;;;;;;7.65;3.85;;;5.10;99.90;;;;;;4997405;28;20044;-77
2022/10/05 04:33:31;;;;;;;5.43;3.25;;;5.00;99.90;;;;;;4997304;28;20026;-78
2022/10/05 04:36:19;;;;;;;13.50;3.75;;;5.00;99.90;;;;;;4997290;28;20172;-77
2022/10/05 04:39:05;;;;;;;7.93;3.17;;;5.00;99.90;;;;;;4997220;28;20026;-77
2022/10/05 04:41:48;;;;;;;6.25;3.15;;;5.00;99.90;;;;;;4997279;28;20064;-78
2022/10/05 04:44:13;;;;;;;8.32;4.18;;;5.00;99.90;;;;;;4996593;28;20029;-78
2022/10/05 04:47:02;;;;;;;21.45;5.85;;;4.90;99.90;;;;;;4997245;28;20029;-77
2022/10/05 04:49:49;;;;;;;6.88;3.95;;;4.90;99.90;;;;;;4996899;28;20030;-76
2022/10/05 04:52:43;;;;;;;5.03;3.47;;;4.80;99.90;;;;;;4997252;28;20033;-76
2022/10/05 04:55:58;;;;;;;8.38;4.03;;;4.80;99.90;;;;;;4968675;28;20052;-78
2022/10/05 04:58:39;;;;;;;8.98;4.57;;;4.80;99.90;;;;;;4996845;28;20113;-76
2022/10/05 05:01:32;;;;;;;7.28;4.70;;;4.80;99.90;;;;;;5014097;28;20556;-77
2022/10/05 05:04:36;;;;;;;10.10;4.22;;;4.70;99.90;;;;;;5014410;28;20029;-76
2022/10/05 05:07:36;;;;;;;8.60;4.60;;;4.70;99.90;;;;;;4984286;28;20470;-75
2022/10/05 05:10:11;;;;;;;7.55;4.28;;;4.80;99.90;;;;;;5014218;28;20033;-76
2022/10/05 05:12:36;;;;;;;7.03;4.13;;;4.70;99.90;;;;;;4996717;28;20116;-76
2022/10/05 05:15:27;;;;;;;11.52;4.45;;;4.70;99.90;;;;;;5013858;28;20435;-76
2022/10/05 05:18:08;;;;;;;9.88;4.57;;;4.70;99.90;;;;;;5014208;28;20389;-76
2022/10/05 05:21:01;;;;;;;15.52;5.80;;;4.80;99.90;;;;;;4996883;28;20529;-76
2022/10/05 05:23:40;;;;;;;10.18;4.70;;;4.80;99.90;;;;;;4996641;28;20029;-76
2022/10/05 05:26:28;;;;;;;8.00;4.88;;;4.80;99.90;;;;;;5014137;28;20048;-76
2022/10/05 05:29:18;;;;;;;8.75;5.30;;;4.80;99.90;;;;;;5014310;28;20030;-75
2022/10/05 05:32:03;;;;;;;11.80;5.22;;;4.80;99.90;;;;;;4996313;28;20026;-76
2022/10/05 05:35:07;;;;;;;9.70;4.97;;;4.80;99.90;;;;;;4996465;28;20080;-76
2022/10/05 05:37:47;;;;;;;11.60;5.82;;;4.80;99.90;;;;;;4991409;28;20188;-77
2022/10/05 05:40:24;;;;;;;10.32;5.18;;;4.80;99.90;;;;;;4998297;28;20029;-76
2022/10/05 05:42:55;;;;;;;14.10;5.10;;;4.90;99.90;;;;;;5016029;28;20030;-76
2022/10/05 05:45:32;;;;;;;11.40;4.93;;;4.90;99.90;;;;;;5016737;28;20030;-76
2022/10/05 05:48:01;;;;;;;10.88;5.60;;;4.90;99.90;;;;;;5016125;28;20161;-76
2022/10/05 05:50:49;;;;;;;13.13;5.13;;;4.90;99.90;;;;;;4997857;28;20029;-76
2022/10/05 05:53:34;;;;;;;12.52;5.43;;;5.00;99.90;;;;;;4997945;28;20382;-76
2022/10/05 05:56:12;;;;;;;12.38;5.20;;;5.10;99.90;;;;;;4997129;28;20041;-76
2022/10/05 05:58:43;;;;;;;10.45;5.30;;;5.10;99.90;;;;;;5018369;28;20022;-76
2022/10/05 06:01:31;;;;;;;9.23;5.47;;;5.20;99.90;;;;;;5001207;28;20355;-76
2022/10/05 06:04:08;;;;;;;8.27;5.10;;;5.30;99.90;;;;;;5017523;28;20026;-76
2022/10/05 06:06:38;;;;;;;13.20;5.28;;;5.30;99.90;;;;;;5017462;28;20026;-76
2022/10/05 06:09:27;;;;;;;13.10;5.63;;;5.40;99.90;;;;;;5017992;28;20101;-76
2022/10/05 06:12:01;;;;;;;10.52;5.32;;;5.50;99.90;;;;;;5019498;28;20458;-76
2022/10/05 06:14:31;;;;;;;11.07;6.38;;;5.70;99.90;;;;;;5002882;28;20120;-76
2022/10/05 06:17:11;;;;;;;10.65;4.25;;;6.10;99.90;;;;;;5017511;28;20485;-76
2022/10/05 06:19:38;;;;;;;9.75;3.97;;;6.40;99.90;;;;;;5017127;28;20030;-77
2022/10/05 06:22:16;;;;;;;7.47;4.35;;;6.70;99.90;;;;;;4999707;28;20049;-77
2022/10/05 06:24:50;;;;;;;8.13;3.38;;;6.90;99.90;;;;;;4999846;28;20026;-77
2022/10/05 06:27:36;;;;;;;9.75;2.75;;;7.10;99.90;;;;;;5000028;28;20037;-77
2022/10/05 06:30:14;;;;;;;6.93;3.25;;;7.30;99.90;;;;;;5017403;28;20038;-77
2022/10/05 06:33:02;;;;;;;6.78;3.38;;;7.40;99.90;;;;;;4999436;28;20034;-77
2022/10/05 06:35:43;;;;;;;7.15;2.72;;;7.50;99.90;;;;;;4961290;28;20038;-76
2022/10/05 06:38:21;;;;;;;8.57;2.58;;;7.50;99.90;;;;;;5016905;28;20356;-76
2022/10/05 06:40:59;;;;;;;6.55;3.53;;;7.60;99.90;;;;;;5017148;28;20028;-76
2022/10/05 06:43:57;;;;;;;5.80;3.05;;;7.60;99.90;;;;;;4999534;28;20418;-76
2022/10/05 06:46:45;;;;;;;7.00;2.70;;;7.70;99.90;;;;;;4999439;28;20033;-77
2022/10/05 06:49:19;;;;;;;6.53;2.90;;;7.90;99.90;;;;;;4999444;28;20478;-77
2022/10/05 06:52:09;;;;;;;4.38;2.53;;;8.00;99.90;;;;;;5016951;28;20025;-77
2022/10/05 06:54:42;;;;;;;8.32;3.55;;;8.20;99.90;;;;;;4999318;28;20030;-77
2022/10/05 06:57:11;;;;;;;6.25;3.20;;;8.40;99.90;;;;;;4999500;28;20077;-77
2022/10/05 06:59:51;;;;;;;5.78;3.15;;;8.60;99.90;;;;;;4999028;28;20532;-78
2022/10/05 07:02:45;;;;;;;8.45;2.60;;;8.90;99.90;;;;;;4999073;28;20026;-78
2022/10/05 07:05:49;;;;;;;9.85;2.60;;;9.30;99.90;;;;;;5016668;28;20026;-78
2022/10/05 07:08:27;;;;;;;5.72;2.08;;;9.60;99.90;;;;;;5015199;28;20026;-79
2022/10/05 07:10:58;;;;;;;14.00;2.58;;;10.10;99.90;;;;;;4998827;28;20418;-79
2022/10/05 07:13:38;;;;;;;8.63;2.63;;;10.40;99.90;;;;;;5016337;28;20057;-79
2022/10/05 07:16:16;;;;;;;10.05;3.67;;;10.70;99.90;;;;;;4999000;28;20382;-79
2022/10/05 07:19:21;;;;;;;8.27;3.53;;;11.20;99.90;;;;;;4998703;28;20377;-78
2022/10/05 07:22:22;;;;;;;5.65;2.75;;;11.70;99.90;;;;;;4998531;28;20081;-78
2022/10/05 07:25:07;;;;;;;4.13;2.58;;;12.30;99.90;;;;;;5015942;28;20418;-79
2022/10/05 07:27:37;;;;;;;7.78;3.25;;;13.00;99.90;;;;;;4998448;28;20116;-78
2022/10/05 07:30:10;;;;;;;7.03;2.78;;;13.70;99.90;;;;;;4998965;28;20037;-78
2022/10/05 07:32:47;;;;;;;7.78;3.28;;;14.40;99.90;;;;;;4998700;28;20490;-79
2022/10/05 07:38:58;;;;;;;5.60;3.47;;;15.40;99.90;;;;;;5015668;28;20084;-78
2022/10/05 07:41:38;;;;;;;6.68;3.20;;;16.10;99.90;;;;;;4997935;28;20034;-79
2022/10/05 07:44:18;;;;;;;7.78;3.55;;;16.60;99.90;;;;;;4998114;28;20025;-78
2022/10/05 07:46:53;;;;;;;5.13;3.42;;;16.90;99.90;;;;;;4998120;28;20470;-79
2022/10/05 07:49:26;;;;;;;9.88;4.10;;;17.20;99.90;;;;;;5015895;28;20501;-78
2022/10/05 07:51:57;;;;;;;11.07;4.07;;;17.30;99.90;;;;;;4997800;28;20041;-79
2022/10/05 07:54:35;;;;;;;10.57;3.63;;;17.50;99.90;;;;;;4998121;28;20049;-79
2022/10/05 07:57:35;;;;;;;13.85;3.92;;;17.40;99.10;;;;;;4997660;28;20116;-79
2022/10/05 08:00:10;;;;;;;7.57;3.70;;;17.50;99.90;;;;;;4997760;28;20168;-79
2022/10/05 08:02:46;;;;;;;12.35;4.47;;;17.60;99.10;;;;;;5015031;28;20474;-79
2022/10/05 08:05:24;;;;;;;11.82;3.72;;;17.40;99.00;;;;;;5007859;28;20418;-79
2022/10/05 08:08:14;;;;;;;13.05;4.00;;;17.20;99.90;;;;;;4997723;28;20022;-79
2022/10/05 08:10:58;;;;;;;7.47;3.50;;;17.40;99.90;;;;;;4996636;28;20470;-78
2022/10/05 08:13:46;;;;;;;11.63;4.03;;;17.60;99.00;;;;;;5015425;28;20025;-79
2022/10/05 08:16:12;;;;;;;9.05;4.30;;;17.70;97.80;;;;;;5014905;28;20059;-79
2022/10/05 08:18:44;;;;;;;7.80;3.50;;;17.50;97.10;;;;;;4997888;28;20060;-79
2022/10/05 08:21:12;;;;;;;6.45;3.92;;;17.20;97.80;;;;;;4997357;28;20061;-79
2022/10/05 08:23:49;;;;;;;8.52;3.58;;;17.30;98.10;;;;;;4997872;28;20363;-79
2022/10/05 08:26:33;;;;;;;8.75;3.20;;;17.40;97.20;;;;;;4997781;28;20026;-78
2022/10/05 08:29:22;;;;;;;7.05;3.13;;;17.90;96.30;;;;;;4997444;28;20034;-79
2022/10/05 08:32:31;;;;;;;9.90;3.83;;;18.10;95.00;;;;;;5015170;28;20036;-79
2022/10/05 08:35:12;;;;;;;7.63;2.75;;;18.00;95.80;;;;;;4996033;28;20034;-79
2022/10/05 08:37:41;;;;;;;8.38;2.90;;;18.30;94.10;;;;;;5014771;28;20026;-79
2022/10/05 08:40:29;;;;;;;4.57;2.60;;;18.90;93.70;;;;;;4997047;28;20363;-78
2022/10/05 08:43:20;;;;;;;4.88;3.00;;;19.20;92.80;;;;;;4997040;28;20084;-79
2022/10/05 08:46:35;;;;;;;6.05;2.60;;;19.30;91.40;;;;;;5014790;28;20037;-79
2022/10/05 08:49:03;;;;;;;8.02;2.80;;;19.60;90.90;;;;;;4935190;29;20388;-79
2022/10/05 08:52:04;;;;;;;4.80;2.22;;;19.80;89.50;;;;;;5006098;28;20041;-80
2022/10/05 08:54:54;;;;;;;3.10;2.20;;;20.30;87.50;;;;;;4996945;28;20034;-80
2022/10/05 08:57:57;;;;;;;5.35;2.53;;;20.50;86.40;;;;;;4996803;28;20096;-80
2022/10/05 09:00:30;;;;;;;4.13;2.10;;;21.00;82.70;;;;;;5001795;28;20073;-80
2022/10/05 09:03:33;;;;;;;5.22;2.33;;;21.40;79.90;;;;;;5014147;28;20061;-80
2022/10/05 09:06:36;;;;;;;7.22;2.20;;;21.90;77.00;;;;;;4988978;28;20048;-80
2022/10/05 09:09:11;;;;;;;3.40;2.08;;;22.50;73.10;;;;;;4996847;28;20613;-80
2022/10/05 09:12:19;;;;;;;4.22;2.03;;;21.60;73.40;;;;;;4997162;28;20406;-80
2022/10/05 09:15:06;;;;;;;3.33;1.90;;;21.50;73.70;;;;;;4995492;28;20037;-79
2022/10/05 09:17:38;;;;;;;5.38;2.33;;;21.40;73.60;;;;;;4996255;28;20053;-78
2022/10/05 09:20:10;;;;;;;7.43;2.28;;;21.60;73.60;;;;;;4996473;28;20037;-78
2022/10/05 09:22:58;;;;;;;2.60;1.90;;;21.90;73.10;;;;;;5014081;28;20121;-78
2022/10/05 09:25:37;;;;;;;7.45;2.38;;;21.90;72.60;;;;;;4996760;28;20436;-80
2022/10/05 09:28:03;;;;;;;;;;;21.30;72.50;;;;;;4997080;28;20103;-79
2022/10/05 09:30:34;;;;;;;8.43;2.22;;;20.80;73.10;;;;;;4996260;28;19905;-80
2022/10/05 09:33:24;;;;;;;4.28;2.33;;;20.30;73.70;;;;;;4996600;28;20105;-79
2022/10/05 09:36:11;;;;;;;9.60;2.70;;;19.70;76.80;;;;;;4996769;28;20470;-80
2022/10/05 09:38:40;;;;;;;4.28;1.80;;;19.40;78.30;;;;;;4996488;28;20057;-81
2022/10/05 09:41:33;;;;;;;3.53;2.20;;;19.40;78.60;;;;;;4996436;28;20033;-80
2022/10/05 09:44:22;;;;;;;9.32;2.00;;;19.30;79.70;;;;;;4996343;28;20080;-80
2022/10/05 09:46:51;;;;;;;7.32;2.40;;;19.20;80.60;;;;;;4996837;28;20488;-80
2022/10/05 09:49:51;;;;;;;2.03;1.65;;;19.30;80.90;;;;;;4996380;28;20034;-80
2022/10/05 09:52:35;;;;;;;5.72;1.48;;;19.80;80.40;;;;;;4965033;28;20042;-80
2022/10/05 09:55:47;;;;;;;3.17;1.70;;;20.30;78.60;;;;;;4996116;28;20124;-81
2022/10/05 09:58:40;;;;;;;4.97;1.85;;;20.90;77.30;;;;;;5013918;28;20025;-81
2022/10/05 10:01:12;;;;;;;14.38;2.33;;;21.50;74.70;;;;;;4996792;28;20355;-81
2022/10/05 10:04:09;;;;;;;7.00;2.15;;;22.10;72.00;;;;;;4996285;28;20060;-81
2022/10/05 10:06:55;;;;;;;3.53;1.40;;;22.20;71.70;;;;;;5013697;28;20057;-81
2022/10/05 10:09:33;;;;;;;7.82;1.58;;;22.40;71.40;;;;;;4996284;28;20495;-81
2022/10/05 10:12:35;;;;;;;5.75;1.75;;;22.20;70.20;;;;;;4996541;28;20434;-80
2022/10/05 10:15:38;;;;;;;6.93;2.05;;;21.50;71.80;;;;;;4996509;28;20486;-81
2022/10/05 10:18:15;;;;;;;5.78;1.73;;;21.10;73.80;;;;;;4995979;28;20053;-81
2022/10/05 10:21:04;;;;;;;6.75;1.88;;;20.70;74.70;;;;;;5013623;28;20026;-81
2022/10/05 10:23:48;;;;;;;3.05;1.50;;;20.50;75.90;;;;;;4975443;28;20046;-81
2022/10/05 10:26:38;;;;;;;3.08;1.40;;;20.30;76.20;;;;;;4996365;28;20466;-81
2022/10/05 10:29:41;;;;;;;7.35;1.70;;;20.30;76.70;;;;;;4996739;28;20037;-81
2022/10/05 10:32:09;;;;;;;5.97;2.05;;;20.40;78.20;;;;;;5013572;28;20381;-81
2022/10/05 10:34:56;;;;;;;5.85;2.65;;;20.40;78.20;;;;;;4995950;28;20025;-81
2022/10/05 10:37:38;;;;;;;3.92;1.63;;;20.50;78.00;;;;;;5013242;28;20042;-81
2022/10/05 10:40:22;;;;;;;6.60;2.10;;;20.80;77.40;;;;;;4996097;28;20455;-81
2022/10/05 10:43:31;;;;;;;3.00;1.35;;;21.20;76.00;;;;;;4996666;28;20032;-80
2022/10/05 10:46:15;;;;;;;4.82;1.75;;;22.20;74.50;;;;;;5014612;28;20046;-81
2022/10/05 10:48:59;;;;;;;3.63;1.50;;;23.10;72.10;;;;;;4999389;28;20144;-80
2022/10/05 10:52:00;;;;;;;5.25;2.17;;;23.40;69.70;;;;;;4999232;28;20072;-81
2022/10/05 10:54:40;;;;;;;4.43;1.70;;;23.70;68.70;;;;;;5017086;28;20452;-80
2022/10/05 10:57:12;;;;;;;2.15;1.58;;;23.80;67.80;;;;;;4999262;28;20091;-80
2022/10/05 10:59:56;;;;;;;2.63;1.50;;;23.90;68.10;;;;;;4999889;28;20454;-81
2022/10/05 11:02:38;;;;;;;5.47;2.00;;;23.40;67.40;;;;;;4999223;28;20076;-81
2022/10/05 11:05:19;;;;;;;2.47;1.67;;;22.50;70.80;;;;;;5017026;28;20036;-85
2022/10/05 11:07:48;;;;;;;4.57;1.70;;;22.50;71.20;;;;;;5016743;28;20029;-82
2022/10/05 11:10:33;;;;;;;5.68;1.70;;;22.40;71.30;;;;;;4999018;28;20022;-83
2022/10/05 11:13:05;;;;;;;3.38;1.80;;;22.40;72.00;;;;;;4999885;28;20034;-83
2022/10/05 11:15:42;;;;;;;2.67;2.08;;;22.40;72.20;;;;;;4999144;28;20470;-84
2022/10/05 11:18:19;;;;;;;4.05;1.65;;;22.30;72.10;;;;;;5017501;28;20042;-83
2022/10/05 11:21:15;;;;;;;4.78;1.45;;;22.60;71.70;;;;;;4999174;28;20029;-82
2022/10/05 11:24:09;;;;;;;6.38;2.33;;;22.90;70.90;;;;;;5016137;28;20030;-78
2022/10/05 11:27:13;;;;;;;3.00;1.73;;;23.20;70.00;;;;;;4998625;28;20061;-79
2022/10/05 11:30:11;;;;;;;4.20;1.70;;;23.90;69.00;;;;;;4997421;28;20192;-79
2022/10/05 11:32:39;;;;;;;5.03;1.70;;;24.80;66.90;;;;;;5016112;28;20149;-79
2022/10/05 11:35:23;;;;;;;4.57;1.90;;;25.10;65.40;;;;;;5016414;28;20072;-79
2022/10/05 11:38:04;;;;;;;4.68;1.63;;;25.50;64.50;;;;;;4998312;28;20033;-79
2022/10/05 11:40:35;;;;;;;4.45;1.60;;;25.80;63.60;;;;;;4998523;28;20076;-79
2022/10/05 11:43:16;;;;;;;5.57;1.88;;;25.50;63.50;;;;;;4998279;28;20026;-79
2022/10/05 11:46:00;;;;;;;13.48;2.45;;;24.80;63.10;;;;;;4998206;28;20034;-79
2022/10/05 11:48:25;;;;;;;2.15;1.50;;;24.30;64.80;;;;;;5015653;28;20026;-79
2022/10/05 11:51:00;;;;;;;5.53;2.00;;;23.90;65.90;;;;;;4997905;28;20482;-80
2022/10/05 11:53:41;;;;;;;4.50;1.73;;;23.70;66.60;;;;;;4997720;28;20030;-80
2022/10/05 11:56:22;;;;;;;6.57;1.75;;;23.40;67.70;;;;;;5015921;28;20470;-79
2022/10/05 11:58:57;;;;;;;3.95;1.55;;;23.60;69.00;;;;;;4998186;28;20026;-80
2022/10/05 12:01:26;;;;;;;5.32;2.08;;;23.70;68.50;;;;;;4998282;28;20060;-80
2022/10/05 12:04:10;;;;;;;;;;;24.10;67.40;;;;;;5015986;28;20528;-80
2022/10/05 12:06:38;;;;;;;6.15;1.63;;;24.60;66.80;;;;;;4998335;28;19971;-79
2022/10/05 12:09:29;;;;;;;5.47;1.58;;;25.00;65.70;;;;;;4998177;28;20117;-80
2022/10/05 12:12:25;;;;;;;10.60;2.00;;;25.40;64.70;;;;;;4998025;28;20378;-79
2022/10/05 12:15:02;;;;;;;2.78;1.55;;;26.00;63.20;;;;;;4998016;28;20429;-66
2022/10/05 12:17:36;;;;;;;4.82;1.75;;;26.80;62.30;;;;;;5015481;28;20054;-66
2022/10/05 12:20:15;;;;;;;4.85;1.88;;;26.70;61.20;;;;;;4997488;28;20113;-66
2022/10/05 12:22:49;;;;;;;3.03;1.83;;;25.50;62.30;;;;;;4997111;28;20036;-66
2022/10/05 12:25:33;;;;;;;2.30;1.52;;;24.80;64.40;;;;;;5014847;28;20421;-65
2022/10/05 12:28:04;;;;;;;6.93;2.00;;;24.40;66.10;;;;;;5014902;28;20108;-66
2022/10/05 12:31:09;;;;;;;6.03;1.85;;;24.20;67.40;;;;;;4997209;28;20085;-64
2022/10/05 12:33:53;;;;;;;12.55;3.15;;;23.70;68.80;;;;;;5013818;28;20033;-59
2022/10/05 12:36:35;;;;;;;6.80;1.98;;;23.20;71.10;;;;;;5014585;28;20080;-59
2022/10/05 12:39:14;;;;;;;10.70;2.05;;;22.70;71.40;;;;;;5014646;28;20033;-59
2022/10/05 12:42:12;;;;;;;7.05;1.98;;;22.70;73.40;;;;;;5014687;28;20026;-59
2022/10/05 12:44:56;;;;;;;3.20;1.60;;;22.70;73.00;;;;;;5014837;28;20030;-59
2022/10/05 12:47:43;;;;;;;8.75;1.95;;;22.30;73.70;;;;;;5014561;28;20032;-59
2022/10/05 12:50:18;;;;;;;4.80;1.92;;;22.20;75.90;;;;;;4997699;28;20529;-90
2022/10/05 12:53:10;;;;;;;7.95;2.42;;;22.00;76.60;;;;;;4998642;28;20462;-90
2022/10/05 12:56:08;;;;;;;5.70;2.20;;;22.10;76.10;;;;;;4980789;28;20147;-85
2022/10/05 12:58:52;;;;;;;6.43;1.92;;;22.00;77.00;;;;;;4992628;28;20080;-86
2022/10/05 13:01:38;;;;;;;4.30;1.60;;;22.10;77.00;;;;;;4997660;28;20605;-82
2022/10/05 13:04:33;;;;;;;6.00;1.85;;;22.40;77.00;;;;;;4997858;28;20026;-85
2022/10/05 13:07:11;;;;;;;2.40;2.00;;;22.30;76.70;;;;;;4912118;28;20168;-86
2022/10/05 13:09:46;;;;;;;9.18;2.22;;;22.10;76.60;;;;;;5014861;28;20113;-84
2022/10/05 13:12:38;;;;;;;4.57;1.98;;;22.20;77.50;;;;;;5014624;28;20030;-84
2022/10/05 13:15:14;;;;;;;4.43;2.00;;;22.40;77.50;;;;;;5014857;28;20064;-85
2022/10/05 13:18:08;;;;;;;5.05;1.98;;;22.20;77.40;;;;;;4997462;28;20050;-84
2022/10/05 13:20:46;;;;;;;5.22;2.00;;;22.00;78.30;;;;;;4984011;28;20045;-85
2022/10/05 13:23:30;;;;;;;4.28;2.28;;;22.00;78.60;;;;;;5015218;28;20072;-85
2022/10/05 13:26:12;;;;;;;5.28;1.95;;;22.20;77.70;;;;;;5016560;28;20080;-85
2022/10/05 13:28:49;;;;;;;3.92;1.85;;;22.40;77.30;;;;;;4998309;28;20084;-84
2022/10/05 13:31:22;;;;;;;3.33;1.88;;;22.10;78.70;;;;;;5014948;28;20026;-84
2022/10/05 13:34:21;;;;;;;5.95;1.80;;;22.30;79.10;;;;;;4997441;28;20030;-84
2022/10/05 13:36:47;;;;;;;;;;;22.30;78.40;;;;;;4997453;28;20513;-84
2022/10/05 13:39:24;;;;;;;1.73;1.60;;;22.30;77.90;;;;;;4997319;28;19906;-84
2022/10/05 13:42:02;;;;;;;6.45;1.77;;;21.90;78.20;;;;;;4998819;28;20117;-85
2022/10/05 13:44:48;;;;;;;3.08;1.60;;;21.80;79.10;;;;;;5000265;28;20121;-85
2022/10/05 13:47:29;;;;;;;6.07;2.00;;;21.80;79.60;;;;;;5016943;28;20566;-85
2022/10/05 13:50:19;;;;;;;4.18;1.70;;;21.80;79.20;;;;;;4999989;28;20030;-86
2022/10/05 13:52:55;;;;;;;3.50;1.67;;;21.80;80.80;;;;;;4998205;28;20100;-86
2022/10/05 13:55:42;;;;;;;2.33;1.83;;;21.90;80.30;;;;;;4997013;28;20033;-84
2022/10/05 13:58:31;;;;;;;2.08;1.45;;;21.80;81.20;;;;;;4997215;28;20491;-83
2022/10/05 14:01:23;;;;;;;4.72;1.50;;;21.60;80.80;;;;;;4997622;28;20029;-87
2022/10/05 14:04:20;;;;;;;7.70;2.20;;;21.60;81.60;;;;;;5015930;28;20022;-89
2022/10/05 14:06:47;;;;;;;7.22;1.90;;;21.60;82.10;;;;;;4997328;28;20044;-89
2022/10/05 14:09:33;;;;;;;3.88;1.70;;;21.70;82.40;;;;;;4997115;28;20030;-87